sensor_id;sensor_type;location;lat;lon;timestamp;P1;durP1;ratioP1;P2;durP2;ratioP2
23290;SDS011;11814;44.686;10.842;2022-07-29T00:02:03;12.95;;;10.65;;
23290;SDS011;11814;44.686;10.842;2022-07-29T00:04:29;19.15;;;11.20;;
23290;SDS011;11814;44.686;10.842;2022-07-29T00:06:55;17.50;;;10.23;;
23290;SDS011;11814;44.686;10.842;2022-07-29T00:09:20;18.55;;;10.88;;
23290;SDS011;11814;44.686;10.842;2022-07-29T00:11:46;14.52;;;10.40;;
23290;SDS011;11814;44.686;10.842;2022-07-29T00:14:12;12.95;;;9.70;;
23290;SDS011;11814;44.686;10.842;2022-07-29T00:16:37;12.13;;;8.32;;
23290;SDS011;11814;44.686;10.842;2022-07-29T00:19:03;16.52;;;10.40;;
23290;SDS011;11814;44.686;10.842;2022-07-29T00:21:29;17.45;;;9.80;;
23290;SDS011;11814;44.686;10.842;2022-07-29T00:23:54;14.23;;;10.40;;
23290;SDS011;11814;44.686;10.842;2022-07-29T00:26:20;12.00;;;9.57;;
23290;SDS011;11814;44.686;10.842;2022-07-29T00:28:46;14.60;;;9.32;;
23290;SDS011;11814;44.686;10.842;2022-07-29T00:31:12;12.45;;;10.18;;
23290;SDS011;11814;44.686;10.842;2022-07-29T00:33:37;14.60;;;9.80;;
23290;SDS011;11814;44.686;10.842;2022-07-29T00:36:03;14.38;;;9.52;;
23290;SDS011;11814;44.686;10.842;2022-07-29T00:38:29;18.88;;;10.55;;
23290;SDS011;11814;44.686;10.842;2022-07-29T00:40:54;13.40;;;10.63;;
23290;SDS011;11814;44.686;10.842;2022-07-29T00:43:20;11.90;;;9.70;;
23290;SDS011;11814;44.686;10.842;2022-07-29T00:45:46;18.25;;;10.38;;
23290;SDS011;11814;44.686;10.842;2022-07-29T00:48:12;16.95;;;9.30;;
23290;SDS011;11814;44.686;10.842;2022-07-29T00:50:37;14.25;;;9.05;;
23290;SDS011;11814;44.686;10.842;2022-07-29T00:53:03;17.58;;;9.30;;
23290;SDS011;11814;44.686;10.842;2022-07-29T00:55:31;16.13;;;8.18;;
23290;SDS011;11814;44.686;10.842;2022-07-29T00:57:57;9.93;;;7.32;;
23290;SDS011;11814;44.686;10.842;2022-07-29T01:00:24;11.23;;;7.53;;
23290;SDS011;11814;44.686;10.842;2022-07-29T01:02:51;8.65;;;7.50;;
23290;SDS011;11814;44.686;10.842;2022-07-29T01:05:18;8.95;;;7.20;;
23290;SDS011;11814;44.686;10.842;2022-07-29T01:07:45;8.27;;;5.85;;
23290;SDS011;11814;44.686;10.842;2022-07-29T01:10:13;7.20;;;6.15;;
23290;SDS011;11814;44.686;10.842;2022-07-29T01:12:40;9.98;;;6.18;;
23290;SDS011;11814;44.686;10.842;2022-07-29T01:15:08;9.90;;;6.35;;
23290;SDS011;11814;44.686;10.842;2022-07-29T01:29:01;14.18;;;9.25;;
23290;SDS011;11814;44.686;10.842;2022-07-29T01:31:38;13.77;;;9.27;;
23290;SDS011;11814;44.686;10.842;2022-07-29T01:34:10;13.07;;;9.93;;
23290;SDS011;11814;44.686;10.842;2022-07-29T01:36:43;12.10;;;9.48;;
23290;SDS011;11814;44.686;10.842;2022-07-29T01:39:30;15.18;;;9.35;;
23290;SDS011;11814;44.686;10.842;2022-07-29T01:45:20;13.02;;;8.45;;
23290;SDS011;11814;44.686;10.842;2022-07-29T01:47:38;10.07;;;7.43;;
23290;SDS011;11814;44.686;10.842;2022-07-29T01:50:09;12.57;;;7.25;;
23290;SDS011;11814;44.686;10.842;2022-07-29T01:52:46;9.35;;;6.25;;
23290;SDS011;11814;44.686;10.842;2022-07-29T01:55:22;10.57;;;7.10;;
23290;SDS011;11814;44.686;10.842;2022-07-29T01:58:02;12.07;;;7.65;;
23290;SDS011;11814;44.686;10.842;2022-07-29T02:00:29;15.32;;;8.40;;
23290;SDS011;11814;44.686;10.842;2022-07-29T02:02:57;12.20;;;7.93;;
23290;SDS011;11814;44.686;10.842;2022-07-29T02:05:26;9.68;;;7.57;;
23290;SDS011;11814;44.686;10.842;2022-07-29T02:07:53;12.05;;;8.13;;
23290;SDS011;11814;44.686;10.842;2022-07-29T02:10:23;12.38;;;8.23;;
23290;SDS011;11814;44.686;10.842;2022-07-29T02:12:54;12.38;;;9.02;;
23290;SDS011;11814;44.686;10.842;2022-07-29T02:15:25;15.25;;;9.57;;
23290;SDS011;11814;44.686;10.842;2022-07-29T02:17:55;16.90;;;11.05;;
23290;SDS011;11814;44.686;10.842;2022-07-29T02:20:45;14.70;;;9.93;;
23290;SDS011;11814;44.686;10.842;2022-07-29T02:23:14;13.20;;;10.23;;
23290;SDS011;11814;44.686;10.842;2022-07-29T02:25:43;15.05;;;10.45;;
23290;SDS011;11814;44.686;10.842;2022-07-29T02:28:09;15.00;;;10.65;;
23290;SDS011;11814;44.686;10.842;2022-07-29T02:30:37;15.75;;;10.20;;
23290;SDS011;11814;44.686;10.842;2022-07-29T02:33:05;12.93;;;10.95;;
23290;SDS011;11814;44.686;10.842;2022-07-29T02:35:33;18.02;;;10.75;;
23290;SDS011;11814;44.686;10.842;2022-07-29T02:37:59;17.27;;;11.13;;
23290;SDS011;11814;44.686;10.842;2022-07-29T02:40:44;13.05;;;10.57;;
23290;SDS011;11814;44.686;10.842;2022-07-29T02:43:10;17.02;;;11.07;;
23290;SDS011;11814;44.686;10.842;2022-07-29T02:45:36;14.55;;;10.27;;
23290;SDS011;11814;44.686;10.842;2022-07-29T02:48:06;16.95;;;10.43;;
23290;SDS011;11814;44.686;10.842;2022-07-29T02:50:38;13.73;;;10.40;;
23290;SDS011;11814;44.686;10.842;2022-07-29T02:53:13;14.93;;;10.43;;
23290;SDS011;11814;44.686;10.842;2022-07-29T03:00:53;15.60;;;11.48;;
23290;SDS011;11814;44.686;10.842;2022-07-29T03:03:22;16.25;;;11.45;;
23290;SDS011;11814;44.686;10.842;2022-07-29T03:05:55;14.23;;;10.45;;
23290;SDS011;11814;44.686;10.842;2022-07-29T03:08:22;14.75;;;11.00;;
23290;SDS011;11814;44.686;10.842;2022-07-29T03:10:49;13.40;;;10.07;;
23290;SDS011;11814;44.686;10.842;2022-07-29T03:13:16;13.43;;;10.57;;
23290;SDS011;11814;44.686;10.842;2022-07-29T03:15:43;14.73;;;10.02;;
23290;SDS011;11814;44.686;10.842;2022-07-29T03:18:09;12.43;;;9.73;;
23290;SDS011;11814;44.686;10.842;2022-07-29T03:20:36;14.82;;;10.23;;
23290;SDS011;11814;44.686;10.842;2022-07-29T03:23:03;16.17;;;11.00;;
23290;SDS011;11814;44.686;10.842;2022-07-29T03:25:29;15.13;;;11.40;;
23290;SDS011;11814;44.686;10.842;2022-07-29T03:27:55;14.18;;;10.93;;
23290;SDS011;11814;44.686;10.842;2022-07-29T03:30:22;14.73;;;9.65;;
23290;SDS011;11814;44.686;10.842;2022-07-29T03:32:48;12.80;;;8.93;;
23290;SDS011;11814;44.686;10.842;2022-07-29T03:35:15;15.10;;;9.80;;
23290;SDS011;11814;44.686;10.842;2022-07-29T03:37:44;19.08;;;11.57;;
23290;SDS011;11814;44.686;10.842;2022-07-29T03:40:10;15.73;;;11.77;;
23290;SDS011;11814;44.686;10.842;2022-07-29T03:42:39;18.80;;;12.80;;
23290;SDS011;11814;44.686;10.842;2022-07-29T03:45:07;19.00;;;14.55;;
23290;SDS011;11814;44.686;10.842;2022-07-29T03:47:37;18.38;;;14.13;;
23290;SDS011;11814;44.686;10.842;2022-07-29T03:50:06;16.00;;;13.32;;
23290;SDS011;11814;44.686;10.842;2022-07-29T03:52:33;17.88;;;13.18;;
23290;SDS011;11814;44.686;10.842;2022-07-29T03:55:00;25.40;;;15.60;;
23290;SDS011;11814;44.686;10.842;2022-07-29T03:57:27;20.27;;;15.10;;
23290;SDS011;11814;44.686;10.842;2022-07-29T03:59:55;18.38;;;15.55;;
23290;SDS011;11814;44.686;10.842;2022-07-29T04:02:22;20.15;;;15.85;;
23290;SDS011;11814;44.686;10.842;2022-07-29T04:04:48;17.25;;;13.70;;
23290;SDS011;11814;44.686;10.842;2022-07-29T04:07:14;17.60;;;14.50;;
23290;SDS011;11814;44.686;10.842;2022-07-29T04:09:40;18.10;;;14.70;;
23290;SDS011;11814;44.686;10.842;2022-07-29T04:12:07;22.42;;;15.82;;
23290;SDS011;11814;44.686;10.842;2022-07-29T04:14:33;20.15;;;15.75;;
23290;SDS011;11814;44.686;10.842;2022-07-29T04:16:59;18.77;;;15.02;;
23290;SDS011;11814;44.686;10.842;2022-07-29T04:19:26;20.05;;;15.15;;
23290;SDS011;11814;44.686;10.842;2022-07-29T04:21:52;20.17;;;15.82;;
23290;SDS011;11814;44.686;10.842;2022-07-29T04:24:17;21.10;;;16.00;;
23290;SDS011;11814;44.686;10.842;2022-07-29T04:26:44;20.05;;;15.90;;
23290;SDS011;11814;44.686;10.842;2022-07-29T04:29:10;21.77;;;15.07;;
23290;SDS011;11814;44.686;10.842;2022-07-29T04:31:37;20.65;;;16.20;;
23290;SDS011;11814;44.686;10.842;2022-07-29T04:34:02;20.73;;;15.95;;
23290;SDS011;11814;44.686;10.842;2022-07-29T04:36:28;19.13;;;15.38;;
23290;SDS011;11814;44.686;10.842;2022-07-29T04:38:54;22.33;;;14.90;;
23290;SDS011;11814;44.686;10.842;2022-07-29T04:41:19;17.27;;;15.15;;
23290;SDS011;11814;44.686;10.842;2022-07-29T04:43:45;23.88;;;15.95;;
23290;SDS011;11814;44.686;10.842;2022-07-29T04:46:11;20.13;;;15.18;;
23290;SDS011;11814;44.686;10.842;2022-07-29T04:48:36;22.80;;;16.35;;
23290;SDS011;11814;44.686;10.842;2022-07-29T04:51:02;19.67;;;15.88;;
23290;SDS011;11814;44.686;10.842;2022-07-29T04:53:28;21.25;;;15.90;;
23290;SDS011;11814;44.686;10.842;2022-07-29T04:55:53;19.77;;;15.48;;
23290;SDS011;11814;44.686;10.842;2022-07-29T04:58:19;22.65;;;15.27;;
23290;SDS011;11814;44.686;10.842;2022-07-29T05:00:45;21.30;;;16.70;;
23290;SDS011;11814;44.686;10.842;2022-07-29T05:03:10;20.98;;;15.18;;
23290;SDS011;11814;44.686;10.842;2022-07-29T05:05:36;23.05;;;16.17;;
23290;SDS011;11814;44.686;10.842;2022-07-29T05:08:02;20.92;;;16.50;;
23290;SDS011;11814;44.686;10.842;2022-07-29T05:10:28;16.83;;;14.32;;
23290;SDS011;11814;44.686;10.842;2022-07-29T05:12:54;18.38;;;14.82;;
23290;SDS011;11814;44.686;10.842;2022-07-29T05:15:19;18.95;;;14.38;;
23290;SDS011;11814;44.686;10.842;2022-07-29T05:17:45;18.40;;;14.65;;
23290;SDS011;11814;44.686;10.842;2022-07-29T05:20:11;17.67;;;13.98;;
23290;SDS011;11814;44.686;10.842;2022-07-29T05:22:37;20.27;;;14.00;;
23290;SDS011;11814;44.686;10.842;2022-07-29T05:25:02;19.65;;;14.52;;
23290;SDS011;11814;44.686;10.842;2022-07-29T05:27:28;15.40;;;11.73;;
23290;SDS011;11814;44.686;10.842;2022-07-29T05:29:54;15.40;;;11.18;;
23290;SDS011;11814;44.686;10.842;2022-07-29T05:32:19;18.33;;;10.30;;
23290;SDS011;11814;44.686;10.842;2022-07-29T05:34:45;17.83;;;10.35;;
23290;SDS011;11814;44.686;10.842;2022-07-29T05:37:11;16.65;;;10.00;;
23290;SDS011;11814;44.686;10.842;2022-07-29T05:39:38;13.90;;;9.88;;
23290;SDS011;11814;44.686;10.842;2022-07-29T05:42:07;10.00;;;8.50;;
23290;SDS011;11814;44.686;10.842;2022-07-29T05:44:37;12.05;;;8.23;;
23290;SDS011;11814;44.686;10.842;2022-07-29T05:47:04;13.50;;;8.85;;
23290;SDS011;11814;44.686;10.842;2022-07-29T05:49:31;12.25;;;7.82;;
23290;SDS011;11814;44.686;10.842;2022-07-29T05:51:57;10.23;;;7.97;;
23290;SDS011;11814;44.686;10.842;2022-07-29T05:54:23;11.75;;;7.20;;
23290;SDS011;11814;44.686;10.842;2022-07-29T05:56:49;14.73;;;7.75;;
23290;SDS011;11814;44.686;10.842;2022-07-29T05:59:14;14.45;;;7.80;;
23290;SDS011;11814;44.686;10.842;2022-07-29T06:01:40;12.45;;;8.32;;
23290;SDS011;11814;44.686;10.842;2022-07-29T06:04:06;12.75;;;6.70;;
23290;SDS011;11814;44.686;10.842;2022-07-29T06:06:32;13.25;;;7.15;;
23290;SDS011;11814;44.686;10.842;2022-07-29T06:08:59;14.90;;;6.82;;
23290;SDS011;11814;44.686;10.842;2022-07-29T06:11:25;10.13;;;6.85;;
23290;SDS011;11814;44.686;10.842;2022-07-29T06:13:51;12.13;;;7.93;;
23290;SDS011;11814;44.686;10.842;2022-07-29T06:16:18;12.13;;;7.57;;
23290;SDS011;11814;44.686;10.842;2022-07-29T06:18:43;10.45;;;7.60;;
23290;SDS011;11814;44.686;10.842;2022-07-29T06:21:09;10.63;;;7.68;;
23290;SDS011;11814;44.686;10.842;2022-07-29T06:23:38;11.70;;;7.18;;
23290;SDS011;11814;44.686;10.842;2022-07-29T06:26:04;10.10;;;7.50;;
23290;SDS011;11814;44.686;10.842;2022-07-29T06:28:30;10.23;;;8.38;;
23290;SDS011;11814;44.686;10.842;2022-07-29T06:30:56;13.05;;;8.60;;
23290;SDS011;11814;44.686;10.842;2022-07-29T06:33:22;10.85;;;8.30;;
23290;SDS011;11814;44.686;10.842;2022-07-29T06:35:48;9.18;;;7.55;;
23290;SDS011;11814;44.686;10.842;2022-07-29T06:38:14;10.15;;;7.35;;
23290;SDS011;11814;44.686;10.842;2022-07-29T06:40:43;9.73;;;6.82;;
23290;SDS011;11814;44.686;10.842;2022-07-29T06:43:25;7.90;;;6.78;;
23290;SDS011;11814;44.686;10.842;2022-07-29T06:46:06;6.90;;;6.20;;
23290;SDS011;11814;44.686;10.842;2022-07-29T06:48:34;10.70;;;7.32;;
23290;SDS011;11814;44.686;10.842;2022-07-29T06:51:01;10.25;;;6.38;;
23290;SDS011;11814;44.686;10.842;2022-07-29T06:53:28;10.60;;;7.05;;
23290;SDS011;11814;44.686;10.842;2022-07-29T06:55:54;11.23;;;7.45;;
23290;SDS011;11814;44.686;10.842;2022-07-29T06:58:20;27.65;;;7.03;;
23290;SDS011;11814;44.686;10.842;2022-07-29T07:00:46;9.88;;;7.07;;
23290;SDS011;11814;44.686;10.842;2022-07-29T07:03:13;15.55;;;6.82;;
23290;SDS011;11814;44.686;10.842;2022-07-29T07:05:39;12.00;;;6.97;;
23290;SDS011;11814;44.686;10.842;2022-07-29T07:08:05;9.98;;;6.03;;
23290;SDS011;11814;44.686;10.842;2022-07-29T07:10:31;10.60;;;6.82;;
23290;SDS011;11814;44.686;10.842;2022-07-29T07:12:57;9.02;;;6.65;;
23290;SDS011;11814;44.686;10.842;2022-07-29T07:15:24;9.98;;;7.95;;
23290;SDS011;11814;44.686;10.842;2022-07-29T07:17:49;12.48;;;7.70;;
23290;SDS011;11814;44.686;10.842;2022-07-29T07:20:15;13.18;;;7.65;;
23290;SDS011;11814;44.686;10.842;2022-07-29T07:22:41;9.57;;;7.90;;
23290;SDS011;11814;44.686;10.842;2022-07-29T07:25:07;10.68;;;8.38;;
23290;SDS011;11814;44.686;10.842;2022-07-29T07:27:33;14.32;;;8.48;;
23290;SDS011;11814;44.686;10.842;2022-07-29T07:29:59;11.00;;;8.00;;
23290;SDS011;11814;44.686;10.842;2022-07-29T07:32:26;9.85;;;7.55;;
23290;SDS011;11814;44.686;10.842;2022-07-29T07:34:51;8.65;;;6.75;;
23290;SDS011;11814;44.686;10.842;2022-07-29T07:37:17;9.73;;;7.30;;
23290;SDS011;11814;44.686;10.842;2022-07-29T07:39:45;12.48;;;7.85;;
23290;SDS011;11814;44.686;10.842;2022-07-29T07:42:11;8.88;;;7.30;;
23290;SDS011;11814;44.686;10.842;2022-07-29T07:44:38;14.27;;;7.40;;
23290;SDS011;11814;44.686;10.842;2022-07-29T07:47:04;9.70;;;7.30;;
23290;SDS011;11814;44.686;10.842;2022-07-29T07:49:30;15.15;;;7.45;;
23290;SDS011;11814;44.686;10.842;2022-07-29T07:51:56;9.15;;;7.43;;
23290;SDS011;11814;44.686;10.842;2022-07-29T07:54:21;9.90;;;7.45;;
23290;SDS011;11814;44.686;10.842;2022-07-29T07:56:47;10.13;;;7.20;;
23290;SDS011;11814;44.686;10.842;2022-07-29T07:59:16;10.35;;;7.32;;
23290;SDS011;11814;44.686;10.842;2022-07-29T08:01:42;14.23;;;7.80;;
23290;SDS011;11814;44.686;10.842;2022-07-29T08:04:08;12.32;;;7.75;;
23290;SDS011;11814;44.686;10.842;2022-07-29T08:06:34;10.95;;;7.82;;
23290;SDS011;11814;44.686;10.842;2022-07-29T08:09:01;10.15;;;7.13;;
23290;SDS011;11814;44.686;10.842;2022-07-29T08:11:28;16.63;;;8.23;;
23290;SDS011;11814;44.686;10.842;2022-07-29T08:13:53;13.05;;;8.88;;
23290;SDS011;11814;44.686;10.842;2022-07-29T08:16:19;9.35;;;7.57;;
23290;SDS011;11814;44.686;10.842;2022-07-29T08:18:45;12.40;;;8.23;;
23290;SDS011;11814;44.686;10.842;2022-07-29T08:21:12;11.27;;;8.10;;
23290;SDS011;11814;44.686;10.842;2022-07-29T08:23:39;9.75;;;7.00;;
23290;SDS011;11814;44.686;10.842;2022-07-29T08:26:10;10.35;;;8.23;;
23290;SDS011;11814;44.686;10.842;2022-07-29T08:28:40;18.63;;;9.25;;
23290;SDS011;11814;44.686;10.842;2022-07-29T08:31:10;10.65;;;8.10;;
23290;SDS011;11814;44.686;10.842;2022-07-29T08:33:37;10.38;;;7.53;;
23290;SDS011;11814;44.686;10.842;2022-07-29T08:36:03;14.60;;;7.60;;
23290;SDS011;11814;44.686;10.842;2022-07-29T08:38:28;9.30;;;7.38;;
23290;SDS011;11814;44.686;10.842;2022-07-29T08:40:54;9.57;;;7.60;;
23290;SDS011;11814;44.686;10.842;2022-07-29T08:43:20;10.10;;;7.95;;
23290;SDS011;11814;44.686;10.842;2022-07-29T08:45:47;11.63;;;7.38;;
23290;SDS011;11814;44.686;10.842;2022-07-29T08:48:20;24.83;;;8.48;;
23290;SDS011;11814;44.686;10.842;2022-07-29T08:50:47;10.52;;;7.03;;
23290;SDS011;11814;44.686;10.842;2022-07-29T08:53:17;13.65;;;8.02;;
23290;SDS011;11814;44.686;10.842;2022-07-29T08:55:44;9.15;;;6.82;;
23290;SDS011;11814;44.686;10.842;2022-07-29T08:58:11;6.68;;;5.85;;
23290;SDS011;11814;44.686;10.842;2022-07-29T09:00:41;10.52;;;6.78;;
23290;SDS011;11814;44.686;10.842;2022-07-29T09:03:14;10.73;;;7.32;;
23290;SDS011;11814;44.686;10.842;2022-07-29T09:05:44;9.20;;;6.55;;
23290;SDS011;11814;44.686;10.842;2022-07-29T09:08:11;9.70;;;6.78;;
23290;SDS011;11814;44.686;10.842;2022-07-29T09:10:38;8.73;;;5.45;;
23290;SDS011;11814;44.686;10.842;2022-07-29T09:13:04;13.38;;;6.10;;
23290;SDS011;11814;44.686;10.842;2022-07-29T09:15:30;7.72;;;5.72;;
23290;SDS011;11814;44.686;10.842;2022-07-29T09:17:56;10.05;;;6.78;;
23290;SDS011;11814;44.686;10.842;2022-07-29T09:20:23;11.52;;;6.75;;
23290;SDS011;11814;44.686;10.842;2022-07-29T09:22:50;13.30;;;7.18;;
23290;SDS011;11814;44.686;10.842;2022-07-29T09:25:37;7.35;;;5.53;;
23290;SDS011;11814;44.686;10.842;2022-07-29T09:28:07;7.35;;;5.95;;
23290;SDS011;11814;44.686;10.842;2022-07-29T09:30:35;7.35;;;5.03;;
23290;SDS011;11814;44.686;10.842;2022-07-29T09:33:14;9.20;;;5.13;;
23290;SDS011;11814;44.686;10.842;2022-07-29T09:35:40;8.98;;;5.47;;
23290;SDS011;11814;44.686;10.842;2022-07-29T09:38:12;8.07;;;5.80;;
23290;SDS011;11814;44.686;10.842;2022-07-29T09:40:38;10.57;;;5.57;;
23290;SDS011;11814;44.686;10.842;2022-07-29T09:43:11;11.55;;;7.15;;
23290;SDS011;11814;44.686;10.842;2022-07-29T09:45:37;11.52;;;6.10;;
23290;SDS011;11814;44.686;10.842;2022-07-29T09:48:20;6.78;;;4.85;;
23290;SDS011;11814;44.686;10.842;2022-07-29T09:50:50;8.13;;;4.47;;
23290;SDS011;11814;44.686;10.842;2022-07-29T09:53:30;10.27;;;5.07;;
23290;SDS011;11814;44.686;10.842;2022-07-29T09:56:00;9.20;;;6.45;;
23290;SDS011;11814;44.686;10.842;2022-07-29T09:58:27;11.45;;;5.18;;
23290;SDS011;11814;44.686;10.842;2022-07-29T10:00:53;7.55;;;3.65;;
23290;SDS011;11814;44.686;10.842;2022-07-29T10:03:20;6.15;;;3.35;;
23290;SDS011;11814;44.686;10.842;2022-07-29T10:05:47;6.43;;;3.78;;
23290;SDS011;11814;44.686;10.842;2022-07-29T10:08:29;8.13;;;4.60;;
23290;SDS011;11814;44.686;10.842;2022-07-29T10:11:08;6.55;;;4.05;;
23290;SDS011;11814;44.686;10.842;2022-07-29T10:13:38;8.40;;;3.97;;
23290;SDS011;11814;44.686;10.842;2022-07-29T10:16:05;6.07;;;3.75;;
23290;SDS011;11814;44.686;10.842;2022-07-29T10:18:32;6.35;;;4.05;;
23290;SDS011;11814;44.686;10.842;2022-07-29T10:20:59;4.50;;;3.35;;
23290;SDS011;11814;44.686;10.842;2022-07-29T10:23:26;5.03;;;3.17;;
23290;SDS011;11814;44.686;10.842;2022-07-29T10:25:54;9.48;;;3.95;;
23290;SDS011;11814;44.686;10.842;2022-07-29T10:28:19;10.23;;;3.50;;
23290;SDS011;11814;44.686;10.842;2022-07-29T10:30:45;9.60;;;4.20;;
23290;SDS011;11814;44.686;10.842;2022-07-29T10:39:05;5.32;;;3.15;;
23290;SDS011;11814;44.686;10.842;2022-07-29T10:41:55;7.05;;;3.45;;
23290;SDS011;11814;44.686;10.842;2022-07-29T10:44:42;5.00;;;2.97;;
23290;SDS011;11814;44.686;10.842;2022-07-29T10:47:08;7.97;;;3.20;;
23290;SDS011;11814;44.686;10.842;2022-07-29T10:49:57;5.63;;;3.08;;
23290;SDS011;11814;44.686;10.842;2022-07-29T10:58:22;7.22;;;3.50;;
23290;SDS011;11814;44.686;10.842;2022-07-29T11:00:48;7.18;;;3.50;;
23290;SDS011;11814;44.686;10.842;2022-07-29T11:06:05;6.97;;;3.50;;
23290;SDS011;11814;44.686;10.842;2022-07-29T11:08:31;9.43;;;3.42;;
23290;SDS011;11814;44.686;10.842;2022-07-29T11:16:15;6.00;;;3.33;;
23290;SDS011;11814;44.686;10.842;2022-07-29T11:21:38;4.50;;;3.20;;
23290;SDS011;11814;44.686;10.842;2022-07-29T11:24:13;6.38;;;3.35;;
23290;SDS011;11814;44.686;10.842;2022-07-29T11:26:44;6.85;;;3.25;;
23290;SDS011;11814;44.686;10.842;2022-07-29T11:31:45;3.33;;;3.03;;
23290;SDS011;11814;44.686;10.842;2022-07-29T11:47:24;5.25;;;3.25;;
23290;SDS011;11814;44.686;10.842;2022-07-29T11:49:51;4.90;;;3.72;;
23290;SDS011;11814;44.686;10.842;2022-07-29T11:52:18;5.18;;;3.45;;
23290;SDS011;11814;44.686;10.842;2022-07-29T11:54:45;7.25;;;3.13;;
23290;SDS011;11814;44.686;10.842;2022-07-29T11:57:14;6.22;;;3.40;;
23290;SDS011;11814;44.686;10.842;2022-07-29T11:59:44;5.20;;;3.05;;
23290;SDS011;11814;44.686;10.842;2022-07-29T12:02:11;7.18;;;3.30;;
23290;SDS011;11814;44.686;10.842;2022-07-29T12:04:54;4.68;;;3.47;;
23290;SDS011;11814;44.686;10.842;2022-07-29T12:07:28;3.47;;;3.17;;
23290;SDS011;11814;44.686;10.842;2022-07-29T12:09:55;8.40;;;3.13;;
23290;SDS011;11814;44.686;10.842;2022-07-29T12:12:21;7.88;;;3.55;;
23290;SDS011;11814;44.686;10.842;2022-07-29T12:14:48;5.03;;;3.25;;
23290;SDS011;11814;44.686;10.842;2022-07-29T12:17:29;4.28;;;3.10;;
23290;SDS011;11814;44.686;10.842;2022-07-29T12:20:00;5.57;;;3.08;;
23290;SDS011;11814;44.686;10.842;2022-07-29T12:22:29;5.22;;;3.38;;
23290;SDS011;11814;44.686;10.842;2022-07-29T12:25:12;8.68;;;3.28;;
23290;SDS011;11814;44.686;10.842;2022-07-29T12:27:40;5.10;;;2.83;;
23290;SDS011;11814;44.686;10.842;2022-07-29T12:30:08;6.80;;;3.25;;
23290;SDS011;11814;44.686;10.842;2022-07-29T12:32:36;3.50;;;3.00;;
23290;SDS011;11814;44.686;10.842;2022-07-29T12:35:10;5.28;;;3.00;;
23290;SDS011;11814;44.686;10.842;2022-07-29T12:37:38;6.90;;;3.15;;
23290;SDS011;11814;44.686;10.842;2022-07-29T12:40:06;6.68;;;3.40;;
23290;SDS011;11814;44.686;10.842;2022-07-29T12:42:33;7.57;;;3.13;;
23290;SDS011;11814;44.686;10.842;2022-07-29T12:44:59;6.50;;;2.78;;
23290;SDS011;11814;44.686;10.842;2022-07-29T12:47:26;7.10;;;3.40;;
23290;SDS011;11814;44.686;10.842;2022-07-29T12:50:07;4.35;;;3.25;;
23290;SDS011;11814;44.686;10.842;2022-07-29T12:52:39;4.93;;;3.30;;
23290;SDS011;11814;44.686;10.842;2022-07-29T12:55:05;5.97;;;3.72;;
23290;SDS011;11814;44.686;10.842;2022-07-29T12:57:31;5.85;;;3.30;;
23290;SDS011;11814;44.686;10.842;2022-07-29T13:00:10;7.38;;;3.33;;
23290;SDS011;11814;44.686;10.842;2022-07-29T13:02:38;6.05;;;3.22;;
23290;SDS011;11814;44.686;10.842;2022-07-29T13:05:06;6.10;;;3.00;;
23290;SDS011;11814;44.686;10.842;2022-07-29T13:07:33;7.35;;;3.33;;
23290;SDS011;11814;44.686;10.842;2022-07-29T13:10:10;5.60;;;3.03;;
23290;SDS011;11814;44.686;10.842;2022-07-29T13:12:37;7.05;;;3.00;;
23290;SDS011;11814;44.686;10.842;2022-07-29T13:15:13;5.70;;;2.95;;
23290;SDS011;11814;44.686;10.842;2022-07-29T13:17:41;6.68;;;2.92;;
23290;SDS011;11814;44.686;10.842;2022-07-29T13:20:09;3.92;;;2.70;;
23290;SDS011;11814;44.686;10.842;2022-07-29T13:22:39;6.82;;;2.88;;
23290;SDS011;11814;44.686;10.842;2022-07-29T13:25:07;7.68;;;3.17;;
23290;SDS011;11814;44.686;10.842;2022-07-29T13:27:35;4.68;;;2.95;;
23290;SDS011;11814;44.686;10.842;2022-07-29T13:30:03;4.05;;;2.70;;
23290;SDS011;11814;44.686;10.842;2022-07-29T13:32:31;4.47;;;2.78;;
23290;SDS011;11814;44.686;10.842;2022-07-29T13:35:00;3.10;;;2.42;;
23290;SDS011;11814;44.686;10.842;2022-07-29T13:37:27;7.15;;;2.40;;
23290;SDS011;11814;44.686;10.842;2022-07-29T13:39:54;5.38;;;2.70;;
23290;SDS011;11814;44.686;10.842;2022-07-29T13:42:24;5.28;;;2.70;;
23290;SDS011;11814;44.686;10.842;2022-07-29T13:44:50;5.85;;;2.70;;
23290;SDS011;11814;44.686;10.842;2022-07-29T13:47:16;6.07;;;2.80;;
23290;SDS011;11814;44.686;10.842;2022-07-29T13:49:43;7.10;;;2.63;;
23290;SDS011;11814;44.686;10.842;2022-07-29T13:52:09;5.40;;;2.60;;
23290;SDS011;11814;44.686;10.842;2022-07-29T13:54:34;5.30;;;2.67;;
23290;SDS011;11814;44.686;10.842;2022-07-29T13:57:06;5.13;;;2.85;;
23290;SDS011;11814;44.686;10.842;2022-07-29T13:59:32;3.47;;;2.88;;
23290;SDS011;11814;44.686;10.842;2022-07-29T14:01:58;4.60;;;2.70;;
23290;SDS011;11814;44.686;10.842;2022-07-29T14:04:24;5.68;;;2.78;;
23290;SDS011;11814;44.686;10.842;2022-07-29T14:06:49;4.30;;;2.80;;
23290;SDS011;11814;44.686;10.842;2022-07-29T14:09:16;7.03;;;2.67;;
23290;SDS011;11814;44.686;10.842;2022-07-29T14:11:42;8.07;;;3.08;;
23290;SDS011;11814;44.686;10.842;2022-07-29T14:14:08;6.38;;;2.90;;
23290;SDS011;11814;44.686;10.842;2022-07-29T14:16:35;4.75;;;2.70;;
23290;SDS011;11814;44.686;10.842;2022-07-29T14:19:01;5.03;;;2.80;;
23290;SDS011;11814;44.686;10.842;2022-07-29T14:21:27;9.77;;;3.03;;
23290;SDS011;11814;44.686;10.842;2022-07-29T14:23:52;7.22;;;3.20;;
23290;SDS011;11814;44.686;10.842;2022-07-29T14:26:19;4.18;;;2.90;;
23290;SDS011;11814;44.686;10.842;2022-07-29T14:28:46;5.22;;;2.42;;
23290;SDS011;11814;44.686;10.842;2022-07-29T14:31:13;6.35;;;2.97;;
23290;SDS011;11814;44.686;10.842;2022-07-29T14:33:39;4.97;;;2.58;;
23290;SDS011;11814;44.686;10.842;2022-07-29T14:36:04;6.28;;;3.00;;
23290;SDS011;11814;44.686;10.842;2022-07-29T14:38:30;5.40;;;2.47;;
23290;SDS011;11814;44.686;10.842;2022-07-29T14:40:55;7.78;;;2.97;;
23290;SDS011;11814;44.686;10.842;2022-07-29T14:43:21;5.05;;;2.90;;
23290;SDS011;11814;44.686;10.842;2022-07-29T14:45:47;4.15;;;2.92;;
23290;SDS011;11814;44.686;10.842;2022-07-29T14:48:12;7.25;;;3.13;;
23290;SDS011;11814;44.686;10.842;2022-07-29T14:50:38;8.20;;;2.97;;
23290;SDS011;11814;44.686;10.842;2022-07-29T14:53:04;5.00;;;2.80;;
23290;SDS011;11814;44.686;10.842;2022-07-29T14:55:29;8.43;;;3.03;;
23290;SDS011;11814;44.686;10.842;2022-07-29T14:57:55;31.33;;;5.72;;
23290;SDS011;11814;44.686;10.842;2022-07-29T15:00:21;20.70;;;6.20;;
23290;SDS011;11814;44.686;10.842;2022-07-29T15:02:47;19.10;;;7.57;;
23290;SDS011;11814;44.686;10.842;2022-07-29T15:05:13;16.02;;;6.78;;
23290;SDS011;11814;44.686;10.842;2022-07-29T15:07:39;14.48;;;6.85;;
23290;SDS011;11814;44.686;10.842;2022-07-29T15:10:05;12.98;;;5.95;;
23290;SDS011;11814;44.686;10.842;2022-07-29T15:12:31;7.65;;;4.35;;
23290;SDS011;11814;44.686;10.842;2022-07-29T15:14:57;5.13;;;3.92;;
23290;SDS011;11814;44.686;10.842;2022-07-29T15:17:23;8.27;;;4.70;;
23290;SDS011;11814;44.686;10.842;2022-07-29T15:19:48;13.25;;;4.63;;
23290;SDS011;11814;44.686;10.842;2022-07-29T15:22:14;12.20;;;4.88;;
23290;SDS011;11814;44.686;10.842;2022-07-29T15:24:40;17.25;;;6.40;;
23290;SDS011;11814;44.686;10.842;2022-07-29T15:27:05;13.55;;;5.80;;